Time;durP1;ratioP1;P1;durP2;ratioP2;P2;SDS_P1;SDS_P2;PMS_P1;PMS_P2;Temp;Humidity;BMP_temperature;BMP_pressure;BME280_temperature;BME280_humidity;BME280_pressure;Samples;Min_cycle;Max_cycle;Signal;HPM_P1;HPM_P2
2023/01/09 00:01:52;;;;;;;14.80;11.02;;;;;;;;;;6126968;23;20017;-84
2023/01/09 00:04:20;;;;;;;12.30;10.25;;;;;;;;;;6099833;23;20018;-85
2023/01/09 00:06:52;;;;;;;13.18;10.18;;;;;;;;;;6127466;23;20055;-84
2023/01/09 00:09:20;;;;;;;12.63;10.73;;;;;;;;;;6152264;23;20021;-84
2023/01/09 00:11:51;;;;;;;12.95;11.55;;;;;;;;;;6126881;23;20048;-85
2023/01/09 00:14:21;;;;;;;15.10;9.73;;;;;;;;;;6151987;23;20013;-85
2023/01/09 00:16:54;;;;;;;12.50;11.07;;;;;;;;;;6127195;23;20350;-85
2023/01/09 00:19:21;;;;;;;12.23;10.73;;;;;;;;;;6157387;23;20470;-85
2023/01/09 00:21:48;;;;;;;12.60;10.50;;;;;;;;;;6127221;23;20020;-85
2023/01/09 00:24:15;;;;;;;8.40;6.88;;;;;;;;;;6149697;23;20346;-85
2023/01/09 00:26:43;;;;;;;7.57;6.85;;;;;;;;;;6102651;23;20024;-85
2023/01/09 00:29:11;;;;;;;6.72;5.40;;;;;;;;;;6125095;23;20017;-85
2023/01/09 00:31:43;;;;;;;6.65;5.40;;;;;;;;;;6127221;23;20020;-85
2023/01/09 00:34:12;;;;;;;4.90;4.00;;;;;;;;;;6101692;23;20017;-85
2023/01/09 00:36:41;;;;;;;8.05;4.57;;;;;;;;;;6126131;23;20028;-85
2023/01/09 00:39:08;;;;;;;5.90;4.57;;;;;;;;;;6126289;23;20314;-85
2023/01/09 00:41:41;;;;;;;4.95;3.95;;;;;;;;;;6127339;23;20347;-85
2023/01/09 00:44:14;;;;;;;6.40;4.57;;;;;;;;;;6101570;23;20025;-85
2023/01/09 00:46:46;;;;;;;3.38;3.08;;;;;;;;;;6137954;23;20021;-85
2023/01/09 00:55:14;;;;;;;5.68;4.43;;;;;;;;;;6102164;23;20025;-91
2023/01/09 00:57:43;;;;;;;9.10;5.78;;;;;;;;;;6102164;23;20025;-91
2023/01/09 01:00:16;;;;;;;8.73;6.85;;;;;;;;;;6102116;23;20040;-91
2023/01/09 01:02:46;;;;;;;8.27;7.18;;;;;;;;;;6102131;23;20021;-91
2023/01/09 01:08:02;;;;;;;12.40;7.88;;;;;;;;;;6136772;23;20020;-91
2023/01/09 01:10:34;;;;;;;9.77;7.65;;;;;;;;;;6101639;23;20021;-91
2023/01/09 01:13:04;;;;;;;10.75;8.32;;;;;;;;;;6078720;23;20014;-91
2023/01/09 01:15:34;;;;;;;12.55;8.43;;;;;;;;;;6102182;23;20036;-91
2023/01/09 01:18:02;;;;;;;11.55;7.15;;;;;;;;;;6102224;23;20014;-91
2023/01/09 01:20:32;;;;;;;8.88;7.38;;;;;;;;;;6101793;23;20501;-91
2023/01/09 01:23:00;;;;;;;6.45;5.03;;;;;;;;;;6100101;23;20040;-91
2023/01/09 01:25:29;;;;;;;10.13;6.18;;;;;;;;;;6102559;23;20025;-91
2023/01/09 01:28:01;;;;;;;7.00;6.15;;;;;;;;;;6127430;23;20013;-91
2023/01/09 01:30:31;;;;;;;8.27;6.25;;;;;;;;;;6100909;23;20018;-91
2023/01/09 01:33:00;;;;;;;9.88;7.43;;;;;;;;;;6102573;23;20013;-92
2023/01/09 01:35:31;;;;;;;8.05;6.28;;;;;;;;;;6101676;23;20021;-91
2023/01/09 01:37:59;;;;;;;7.20;6.00;;;;;;;;;;6101764;23;20014;-91
2023/01/09 01:40:31;;;;;;;9.63;5.35;;;;;;;;;;6101721;23;20373;-91
2023/01/09 01:43:01;;;;;;;5.22;4.68;;;;;;;;;;6103535;23;20393;-91
2023/01/09 01:45:32;;;;;;;6.70;4.45;;;;;;;;;;6103516;23;20022;-92
2023/01/09 01:48:03;;;;;;;12.40;5.43;;;;;;;;;;6126390;23;20014;-91
2023/01/09 01:53:25;;;;;;;6.10;5.43;;;;;;;;;;6121620;23;20029;-91
2023/01/09 01:56:06;;;;;;;7.53;5.70;;;;;;;;;;6103906;23;20372;-93
2023/01/09 01:58:38;;;;;;;7.35;5.70;;;;;;;;;;6102034;23;20021;-90
2023/01/09 02:01:11;;;;;;;9.18;5.75;;;;;;;;;;6102795;23;20026;-91
2023/01/09 02:03:41;;;;;;;8.02;6.28;;;;;;;;;;6101727;23;20013;-91
2023/01/09 02:06:12;;;;;;;6.30;5.70;;;;;;;;;;6102831;23;20017;-91
2023/01/09 02:08:42;;;;;;;9.02;6.53;;;;;;;;;;6100799;23;20020;-91
2023/01/09 02:11:22;;;;;;;10.10;6.57;;;;;;;;;;6103570;23;20021;-91
2023/01/09 02:13:53;;;;;;;10.27;7.03;;;;;;;;;;6077711;23;20022;-91
2023/01/09 02:16:34;;;;;;;7.35;6.28;;;;;;;;;;6101281;23;20024;-92
2023/01/09 02:19:09;;;;;;;4.28;3.85;;;;;;;;;;6100199;23;20021;-91
2023/01/09 02:21:46;;;;;;;4.97;2.88;;;;;;;;;;6078442;23;20021;-91
2023/01/09 02:24:33;;;;;;;3.95;2.80;;;;;;;;;;6101355;23;20026;-91
2023/01/09 02:27:22;;;;;;;;;;;;;;;;;;6102211;23;20018;-91
2023/01/09 02:30:20;;;;;;;3.08;1.45;;;;;;;;;;6067308;23;19917;-91
2023/01/09 02:36:02;;;;;;;2.20;1.15;;;;;;;;;;6126112;23;20021;-91
2023/01/09 02:38:36;;;;;;;0.85;0.70;;;;;;;;;;6103208;23;20021;-91
2023/01/09 02:41:08;;;;;;;1.67;0.80;;;;;;;;;;6102190;23;20025;-91
2023/01/09 02:46:32;;;;;;;0.73;0.65;;;;;;;;;;6103302;23;20026;-91
2023/01/09 02:49:01;;;;;;;1.40;1.00;;;;;;;;;;6102638;23;20013;-92
2023/01/09 02:54:32;;;;;;;1.42;0.95;;;;;;;;;;6123968;23;20028;-91
2023/01/09 03:00:07;;;;;;;2.30;0.80;;;;;;;;;;6125212;23;20027;-91
2023/01/09 03:08:20;;;;;;;1.55;0.90;;;;;;;;;;6102158;23;20025;-91
2023/01/09 03:19:15;;;;;;;1.40;0.80;;;;;;;;;;6126765;23;20025;-91
2023/01/09 03:24:37;;;;;;;1.33;1.00;;;;;;;;;;6127415;23;20025;-91
2023/01/09 03:27:10;;;;;;;1.17;0.85;;;;;;;;;;6102853;23;20018;-91
2023/01/09 03:32:21;;;;;;;1.63;1.43;;;;;;;;;;6127365;23;20052;-90
2023/01/09 03:34:52;;;;;;;2.05;1.10;;;;;;;;;;6103698;23;20634;-91
2023/01/09 03:37:23;;;;;;;1.35;0.80;;;;;;;;;;6137637;23;20025;-91
2023/01/09 03:39:53;;;;;;;2.30;1.20;;;;;;;;;;6103137;23;20013;-91
2023/01/09 03:42:24;;;;;;;0.93;0.88;;;;;;;;;;6078956;23;20033;-91
2023/01/09 03:47:36;;;;;;;1.42;0.98;;;;;;;;;;6102421;23;20029;-91
2023/01/09 03:50:46;;;;;;;;;;;;;;;;;;;;;
2023/01/09 04:35:15;;;;;;;0.68;0.63;;;;;;;;;;5854610;24;20033;-89
2023/01/09 04:38:08;;;;;;;0.75;0.60;;;;;;;;;;5971782;23;20022;-90
2023/01/09 04:40:37;;;;;;;1.20;0.73;;;;;;;;;;6040095;23;20027;-88
2023/01/09 04:43:05;;;;;;;4.57;0.70;;;;;;;;;;6040001;23;20026;-89
2023/01/09 04:45:32;;;;;;;5.55;0.68;;;;;;;;;;6062265;23;20029;-90
2023/01/09 04:48:00;;;;;;;2.25;1.20;;;;;;;;;;6034291;23;20019;-89
2023/01/09 04:50:28;;;;;;;1.02;0.80;;;;;;;;;;6052741;23;20023;-89
2023/01/09 05:01:27;;;;;;;1.63;0.60;;;;;;;;;;6184800;23;20024;-88
2023/01/09 05:03:56;;;;;;;0.88;0.55;;;;;;;;;;6148028;23;20025;-88
2023/01/09 05:06:37;;;;;;;2.78;0.80;;;;;;;;;;6166287;23;20020;-89
2023/01/09 05:09:05;;;;;;;0.57;0.40;;;;;;;;;;6161630;23;20023;-89
2023/01/09 05:11:35;;;;;;;2.53;0.77;;;;;;;;;;6188130;23;20017;-90
2023/01/09 05:14:05;;;;;;;0.60;0.40;;;;;;;;;;6161297;23;20544;-89
2023/01/09 05:16:33;;;;;;;3.08;0.82;;;;;;;;;;6187824;23;20039;-89
2023/01/09 05:19:01;;;;;;;1.88;0.68;;;;;;;;;;6161181;23;20016;-89
2023/01/09 05:21:30;;;;;;;0.65;0.50;;;;;;;;;;6161759;23;20031;-89
2023/01/09 05:23:59;;;;;;;1.20;0.40;;;;;;;;;;6186207;23;20012;-89
2023/01/09 05:26:30;;;;;;;2.05;1.00;;;;;;;;;;6161741;23;20020;-89
2023/01/09 05:29:00;;;;;;;1.23;0.82;;;;;;;;;;6160727;23;20017;-89
2023/01/09 05:31:37;;;;;;;0.55;0.47;;;;;;;;;;6163549;23;20012;-89
2023/01/09 05:34:05;;;;;;;1.02;0.60;;;;;;;;;;6161289;23;20809;-89
2023/01/09 05:36:37;;;;;;;1.13;0.85;;;;;;;;;;6163272;23;20021;-91
2023/01/09 05:39:05;;;;;;;1.10;0.95;;;;;;;;;;6162724;23;20012;-89
2023/01/09 05:41:36;;;;;;;0.50;0.50;;;;;;;;;;6163104;23;20425;-90
2023/01/09 05:44:08;;;;;;;1.33;0.98;;;;;;;;;;6187964;23;20085;-90
2023/01/09 05:46:36;;;;;;;2.17;0.90;;;;;;;;;;6163103;23;20024;-89
2023/01/09 05:49:03;;;;;;;1.10;1.00;;;;;;;;;;6187242;23;20009;-89
2023/01/09 05:51:34;;;;;;;1.63;0.90;;;;;;;;;;6163773;23;20471;-89
2023/01/09 05:54:06;;;;;;;1.67;1.00;;;;;;;;;;6162667;23;20345;-89
2023/01/09 05:56:34;;;;;;;1.13;0.82;;;;;;;;;;6163745;23;20017;-89
2023/01/09 05:59:04;;;;;;;3.17;1.15;;;;;;;;;;6163314;23;20480;-88
2023/01/09 06:01:37;;;;;;;1.03;0.90;;;;;;;;;;6164681;23;20024;-88
2023/01/09 06:04:07;;;;;;;;;;;;;;;;;;6164565;23;20017;-88
2023/01/09 06:06:40;;;;;;;2.78;1.52;;;;;;;;;;6164849;23;19942;-89
2023/01/09 06:09:09;;;;;;;3.83;1.38;;;;;;;;;;6187549;23;20020;-89
2023/01/09 06:11:47;;;;;;;2.55;1.20;;;;;;;;;;6200127;23;20014;-90
2023/01/09 06:14:15;;;;;;;1.65;0.93;;;;;;;;;;6165500;23;20028;-89
2023/01/09 06:16:42;;;;;;;2.42;1.33;;;;;;;;;;6189585;23;20016;-90
2023/01/09 06:19:11;;;;;;;1.60;1.10;;;;;;;;;;6165059;23;20013;-88
2023/01/09 06:21:42;;;;;;;1.65;1.20;;;;;;;;;;6189893;23;20027;-89
2023/01/09 06:24:19;;;;;;;2.63;1.85;;;;;;;;;;6164725;23;20021;-91
2023/01/09 06:26:46;;;;;;;4.25;1.40;;;;;;;;;;6189891;23;20028;-90
2023/01/09 06:29:15;;;;;;;3.50;1.25;;;;;;;;;;6192850;23;20016;-89
2023/01/09 06:31:42;;;;;;;3.13;1.25;;;;;;;;;;6210502;23;20444;-89
2023/01/09 06:34:11;;;;;;;9.45;1.95;;;;;;;;;;6177420;23;20019;-90
2023/01/09 06:36:41;;;;;;;2.63;1.33;;;;;;;;;;6165017;23;20490;-89
2023/01/09 06:39:09;;;;;;;1.33;1.20;;;;;;;;;;6161979;23;20017;-89
2023/01/09 06:41:38;;;;;;;2.80;1.38;;;;;;;;;;6159761;23;20021;-88
2023/01/09 06:44:08;;;;;;;3.28;1.30;;;;;;;;;;6185409;23;20017;-89
2023/01/09 06:46:38;;;;;;;10.38;1.30;;;;;;;;;;6192907;23;20017;-91
2023/01/09 06:49:09;;;;;;;3.50;1.20;;;;;;;;;;6159717;23;20021;-87
2023/01/09 06:51:36;;;;;;;1.55;1.45;;;;;;;;;;6221813;23;20024;-89
2023/01/09 06:54:04;;;;;;;1.92;1.10;;;;;;;;;;6160276;23;20024;-88
2023/01/09 06:56:50;;;;;;;6.18;1.35;;;;;;;;;;6158596;23;20024;-88
2023/01/09 06:59:27;;;;;;;4.10;1.63;;;;;;;;;;6159346;23;20020;-90
2023/01/09 07:01:56;;;;;;;4.40;1.85;;;;;;;;;;6158524;23;20025;-88
2023/01/09 07:04:28;;;;;;;4.38;0.95;;;;;;;;;;6159931;23;20023;-88
2023/01/09 07:07:05;;;;;;;4.57;1.40;;;;;;;;;;6160474;23;20016;-88
2023/01/09 07:09:35;;;;;;;2.83;1.40;;;;;;;;;;6189425;23;20019;-88
2023/01/09 07:12:05;;;;;;;5.78;2.45;;;;;;;;;;6163000;23;20016;-89
2023/01/09 07:14:32;;;;;;;7.50;1.25;;;;;;;;;;6164400;23;20017;-90
2023/01/09 07:17:05;;;;;;;3.90;1.48;;;;;;;;;;6165273;23;20024;-90
2023/01/09 07:19:33;;;;;;;4.55;1.13;;;;;;;;;;6167359;23;20016;-90
2023/01/09 07:22:01;;;;;;;1.52;0.77;;;;;;;;;;6167558;23;20332;-88
2023/01/09 07:24:31;;;;;;;2.55;1.13;;;;;;;;;;6189912;23;20379;-89
2023/01/09 07:26:59;;;;;;;3.08;0.90;;;;;;;;;;6165787;23;20023;-88
2023/01/09 07:29:30;;;;;;;2.70;0.85;;;;;;;;;;6176014;23;20116;-89
2023/01/09 07:31:58;;;;;;;1.50;0.88;;;;;;;;;;6177979;23;20025;-89
2023/01/09 07:34:29;;;;;;;4.70;1.02;;;;;;;;;;6166495;23;20372;-89
2023/01/09 07:37:02;;;;;;;1.20;1.00;;;;;;;;;;6166190;23;20019;-89
2023/01/09 07:39:29;;;;;;;0.90;0.77;;;;;;;;;;6164875;23;20023;-90
2023/01/09 07:41:59;;;;;;;2.72;0.77;;;;;;;;;;6187776;23;20012;-88
2023/01/09 07:44:26;;;;;;;3.42;0.90;;;;;;;;;;6187785;23;20471;-91
2023/01/09 07:46:55;;;;;;;1.15;0.60;;;;;;;;;;6186542;23;20021;-89
2023/01/09 07:49:29;;;;;;;1.05;0.60;;;;;;;;;;6162644;23;20027;-88
2023/01/09 07:51:58;;;;;;;;;;;;;;;;;;6161529;23;20025;-88
2023/01/09 07:54:27;;;;;;;1.65;0.80;;;;;;;;;;6163323;23;19923;-89
2023/01/09 07:56:57;;;;;;;3.13;0.95;;;;;;;;;;6186594;23;20372;-88
2023/01/09 07:59:32;;;;;;;3.70;0.90;;;;;;;;;;6162559;23;20341;-89
2023/01/09 08:02:04;;;;;;;1.95;1.05;;;;;;;;;;6162974;23;20023;-90
2023/01/09 08:04:35;;;;;;;2.10;0.80;;;;;;;;;;6160559;23;20077;-90
2023/01/09 08:07:03;;;;;;;2.22;1.23;;;;;;;;;;6186846;23;20024;-88
2023/01/09 08:09:33;;;;;;;1.08;0.70;;;;;;;;;;6162602;23;20028;-89
2023/01/09 08:12:04;;;;;;;1.92;1.08;;;;;;;;;;6160604;23;20020;-88
2023/01/09 08:14:37;;;;;;;4.22;3.75;;;;;;;;;;6164105;23;20016;-89
2023/01/09 08:17:11;;;;;;;35.80;16.90;;;;;;;;;;6162782;23;20020;-90
2023/01/09 08:19:39;;;;;;;9.50;5.55;;;;;;;;;;6172427;23;20455;-89
2023/01/09 08:22:09;;;;;;;2.78;1.52;;;;;;;;;;6162345;23;20020;-89
2023/01/09 08:24:41;;;;;;;3.58;1.48;;;;;;;;;;6162247;23;20032;-89
2023/01/09 08:27:09;;;;;;;7.68;1.20;;;;;;;;;;6161723;23;20028;-90
2023/01/09 08:29:37;;;;;;;3.35;0.98;;;;;;;;;;6186412;23;20368;-88
2023/01/09 08:32:11;;;;;;;3.63;2.30;;;;;;;;;;6162842;23;20375;-88
2023/01/09 08:34:41;;;;;;;6.72;3.17;;;;;;;;;;6163466;23;20017;-89
2023/01/09 08:37:15;;;;;;;5.32;1.77;;;;;;;;;;6187743;23;20013;-89
2023/01/09 08:39:43;;;;;;;3.13;1.55;;;;;;;;;;6163888;23;20603;-89
2023/01/09 08:47:50;;;;;;;3.40;1.38;;;;;;;;;;6053165;23;20018;-89
2023/01/09 08:50:25;;;;;;;2.22;1.10;;;;;;;;;;6162518;23;20023;-89
2023/01/09 08:52:53;;;;;;;4.72;1.73;;;;;;;;;;6162444;23;20028;-88
2023/01/09 08:55:21;;;;;;;8.43;1.88;;;;;;;;;;6163445;23;20024;-89
2023/01/09 08:57:51;;;;;;;4.68;1.60;;;;;;;;;;6161183;23;20016;-89
2023/01/09 09:00:20;;;;;;;4.63;1.95;;;;;;;;;;6161628;23;20016;-88
2023/01/09 09:02:52;;;;;;;2.85;2.05;;;;;;;;;;6160146;23;20025;-88
2023/01/09 09:05:25;;;;;;;2.05;1.10;;;;;;;;;;6161197;23;20519;-88
2023/01/09 09:07:54;;;;;;;10.38;2.78;;;;;;;;;;6186653;23;20023;-90
2023/01/09 09:10:26;;;;;;;6.43;1.75;;;;;;;;;;6165726;23;20016;-89
2023/01/09 09:12:54;;;;;;;8.73;2.95;;;;;;;;;;6189024;23;20359;-88
2023/01/09 09:15:25;;;;;;;6.43;2.83;;;;;;;;;;6189972;23;20359;-89
2023/01/09 09:17:55;;;;;;;9.55;4.07;;;;;;;;;;6187623;23;20027;-89
2023/01/09 09:20:38;;;;;;;4.00;1.20;;;;;;;;;;6191746;23;20363;-88
2023/01/09 09:23:10;;;;;;;4.13;1.75;;;;;;;;;;6188151;23;20024;-89
2023/01/09 09:25:44;;;;;;;3.15;1.05;;;;;;;;;;6190709;23;20021;-89
2023/01/09 09:28:11;;;;;;;3.58;0.95;;;;;;;;;;6229540;23;20008;-89
2023/01/09 09:30:41;;;;;;;6.30;1.10;;;;;;;;;;6196192;23;20031;-89
2023/01/09 09:33:13;;;;;;;1.40;1.08;;;;;;;;;;6196990;23;20024;-89
2023/01/09 09:35:40;;;;;;;7.15;2.00;;;;;;;;;;6208435;23;20025;-89
2023/01/09 09:38:10;;;;;;;3.40;0.75;;;;;;;;;;6211450;23;20035;-89
2023/01/09 09:41:10;;;;;;;4.65;1.52;;;;;;;;;;6222889;23;20021;-89
2023/01/09 09:46:54;;;;;;;1.50;1.15;;;;;;;;;;6217329;23;20024;-89
2023/01/09 10:35:44;;;;;;;2.45;0.73;;;;;;;;;;6212166;23;20024;-91
2023/01/09 11:17:46;;;;;;;4.20;1.15;;;;;;;;;;6210925;23;20057;-92
2023/01/09 14:41:56;;;;;;;4.63;1.52;;;;;;;;;;6149615;23;20021;-90
2023/01/09 15:56:32;;;;;;;3.03;1.70;;;;;;;;;;6154486;23;20022;-89
2023/01/09 15:59:15;;;;;;;2.53;1.48;;;;;;;;;;6136407;23;20035;-92
2023/01/09 16:03:08;;;;;;;3.35;1.42;;;;;;;;;;6159538;23;20017;-90
2023/01/09 16:04:41;;;;;;;4.55;1.65;;;;;;;;;;6132028;23;20376;-92
2023/01/09 16:07:15;;;;;;;1.27;1.00;;;;;;;;;;6129445;23;20598;-91
2023/01/09 16:09:47;;;;;;;2.90;1.60;;;;;;;;;;6163737;23;20480;-89
2023/01/09 16:12:43;;;;;;;1.70;1.35;;;;;;;;;;6129832;23;20017;-89
2023/01/09 16:15:25;;;;;;;3.53;2.22;;;;;;;;;;6131276;23;20017;-92
2023/01/09 16:18:21;;;;;;;1.42;0.75;;;;;;;;;;6155702;23;20021;-91
2023/01/09 16:21:05;;;;;;;1.10;0.90;;;;;;;;;;6160580;23;20069;-89
2023/01/09 16:23:35;;;;;;;1.40;1.00;;;;;;;;;;6113050;23;20472;-90
2023/01/09 16:26:09;;;;;;;3.70;1.40;;;;;;;;;;6130317;23;20036;-90
2023/01/09 16:28:42;;;;;;;5.18;2.00;;;;;;;;;;6130976;23;20025;-90
2023/01/09 16:31:19;;;;;;;1.42;0.88;;;;;;;;;;6106080;23;20364;-93
2023/01/09 16:34:05;;;;;;;2.95;1.58;;;;;;;;;;6103856;23;20021;-91
2023/01/09 16:36:35;;;;;;;5.75;2.10;;;;;;;;;;6153336;23;20018;-89
2023/01/09 16:39:13;;;;;;;4.32;1.90;;;;;;;;;;6128701;23;20024;-89
2023/01/09 16:44:33;;;;;;;2.22;1.48;;;;;;;;;;6157312;23;20021;-90
2023/01/09 16:47:01;;;;;;;5.65;2.00;;;;;;;;;;6105679;23;20036;-91
2023/01/09 16:49:29;;;;;;;2.20;1.27;;;;;;;;;;6127106;23;20024;-91
2023/01/09 16:52:01;;;;;;;2.30;1.38;;;;;;;;;;6109641;23;20017;-90
2023/01/09 16:54:32;;;;;;;2.85;1.80;;;;;;;;;;6141732;23;20017;-89
2023/01/09 16:57:04;;;;;;;3.03;1.42;;;;;;;;;;6135835;23;20028;-89
2023/01/09 16:59:49;;;;;;;5.60;1.98;;;;;;;;;;6128957;23;20017;-90
2023/01/09 17:02:20;;;;;;;1.85;1.75;;;;;;;;;;6162701;23;20029;-90
2023/01/09 17:04:50;;;;;;;4.28;1.65;;;;;;;;;;6127442;23;20029;-88
2023/01/09 17:07:24;;;;;;;1.60;1.20;;;;;;;;;;6126232;23;20018;-91
2023/01/09 17:09:55;;;;;;;1.67;1.50;;;;;;;;;;6126641;23;20503;-91
2023/01/09 17:12:29;;;;;;;1.88;1.10;;;;;;;;;;6127660;23;20028;-89
2023/01/09 17:15:00;;;;;;;4.20;1.77;;;;;;;;;;6105473;23;20021;-88
2023/01/09 17:17:30;;;;;;;6.63;1.55;;;;;;;;;;6127651;23;20021;-91
2023/01/09 17:19:59;;;;;;;3.40;2.22;;;;;;;;;;6127700;23;20017;-89
2023/01/09 17:22:37;;;;;;;2.28;1.67;;;;;;;;;;6127877;23;20342;-89
2023/01/09 17:28:34;;;;;;;1.63;1.15;;;;;;;;;;6048237;23;20876;-91
2023/01/09 17:31:10;;;;;;;2.78;1.75;;;;;;;;;;6035218;23;20034;-90
2023/01/09 17:33:41;;;;;;;24.00;2.42;;;;;;;;;;6130033;23;20027;-90
2023/01/09 17:36:17;;;;;;;3.08;1.67;;;;;;;;;;6103852;23;20026;-91
2023/01/09 17:38:53;;;;;;;3.00;2.00;;;;;;;;;;6104965;23;20025;-89
2023/01/09 17:41:26;;;;;;;2.20;1.52;;;;;;;;;;6106058;23;20028;-92
2023/01/09 17:43:56;;;;;;;11.25;2.22;;;;;;;;;;6100482;23;20017;-89
2023/01/09 17:46:32;;;;;;;2.67;2.08;;;;;;;;;;6149324;23;20024;-89
2023/01/09 17:49:01;;;;;;;12.23;3.22;;;;;;;;;;6102264;23;20013;-89
2023/01/09 17:51:29;;;;;;;6.55;2.38;;;;;;;;;;6128056;23;20020;-91
2023/01/09 17:54:03;;;;;;;4.13;3.05;;;;;;;;;;6126606;23;20025;-91
2023/01/09 17:56:36;;;;;;;2.42;2.13;;;;;;;;;;6103940;23;20013;-88
2023/01/09 17:59:06;;;;;;;4.40;2.28;;;;;;;;;;6125857;23;20028;-90
2023/01/09 18:01:35;;;;;;;3.08;2.17;;;;;;;;;;6116301;23;20021;-88
2023/01/09 18:04:08;;;;;;;4.57;3.13;;;;;;;;;;6123865;23;20127;-89
2023/01/09 18:06:39;;;;;;;5.68;2.58;;;;;;;;;;6099499;23;20025;-89
2023/01/09 18:09:16;;;;;;;3.28;2.15;;;;;;;;;;6125938;23;20062;-89
2023/01/09 18:11:44;;;;;;;3.83;2.53;;;;;;;;;;6125927;23;20452;-89
2023/01/09 18:14:20;;;;;;;5.85;2.80;;;;;;;;;;6125596;23;20028;-89
2023/01/09 18:16:50;;;;;;;4.25;2.70;;;;;;;;;;6125065;23;20033;-88
2023/01/09 18:19:18;;;;;;;4.30;3.17;;;;;;;;;;6126079;23;20021;-90
2023/01/09 18:21:50;;;;;;;5.43;3.55;;;;;;;;;;6125680;23;20365;-90
2023/01/09 18:24:23;;;;;;;5.45;3.50;;;;;;;;;;6129483;23;20349;-89
2023/01/09 18:26:57;;;;;;;7.43;2.58;;;;;;;;;;6109741;23;20350;-90
2023/01/09 18:29:24;;;;;;;;;;;;;;;;;;6135559;23;20017;-90
2023/01/09 18:31:53;;;;;;;6.22;3.40;;;;;;;;;;6134034;23;19927;-89
2023/01/09 18:34:26;;;;;;;3.67;3.38;;;;;;;;;;6109493;23;20022;-89
2023/01/09 18:37:09;;;;;;;3.63;2.35;;;;;;;;;;6134032;23;20372;-89
2023/01/09 18:39:39;;;;;;;3.97;2.85;;;;;;;;;;6129626;23;20028;-91
2023/01/09 18:42:17;;;;;;;2.83;2.20;;;;;;;;;;6105173;23;20508;-89
2023/01/09 18:44:49;;;;;;;4.50;2.92;;;;;;;;;;6152960;23;20025;-90
2023/01/09 18:47:19;;;;;;;3.05;2.55;;;;;;;;;;6141529;23;20018;-89
2023/01/09 18:49:51;;;;;;;3.25;2.33;;;;;;;;;;6111131;23;20021;-89
2023/01/09 18:52:24;;;;;;;4.22;2.90;;;;;;;;;;6130133;23;20022;-90
2023/01/09 18:54:53;;;;;;;3.15;2.78;;;;;;;;;;6129416;23;20025;-90
2023/01/09 18:57:24;;;;;;;5.35;2.72;;;;;;;;;;6129358;23;20356;-89
2023/01/09 18:59:54;;;;;;;4.28;2.30;;;;;;;;;;6129508;23;20465;-88
2023/01/09 19:02:25;;;;;;;3.83;2.42;;;;;;;;;;6128688;23;20024;-90
2023/01/09 19:04:55;;;;;;;6.68;2.47;;;;;;;;;;6105249;23;20024;-88
2023/01/09 19:07:25;;;;;;;5.00;3.05;;;;;;;;;;6128781;23;20029;-89
2023/01/09 19:09:57;;;;;;;2.63;2.10;;;;;;;;;;6103831;23;20026;-88
2023/01/09 19:12:25;;;;;;;7.28;2.80;;;;;;;;;;6164955;23;20017;-89
2023/01/09 19:14:54;;;;;;;4.75;3.08;;;;;;;;;;6102189;23;20021;-89
2023/01/09 19:17:23;;;;;;;5.75;3.45;;;;;;;;;;6128297;23;20017;-89
2023/01/09 19:19:57;;;;;;;2.75;2.10;;;;;;;;;;6129176;23;20252;-90
2023/01/09 19:22:28;;;;;;;3.53;2.55;;;;;;;;;;6104494;23;20022;-89
2023/01/09 19:24:56;;;;;;;5.90;2.78;;;;;;;;;;6126899;23;20021;-89
2023/01/09 19:27:28;;;;;;;3.42;3.13;;;;;;;;;;6103398;23;20028;-89
2023/01/09 19:30:02;;;;;;;3.85;3.35;;;;;;;;;;6127096;23;20409;-89
2023/01/09 19:32:39;;;;;;;3.35;3.00;;;;;;;;;;6102639;23;20025;-89
2023/01/09 19:35:17;;;;;;;6.82;2.70;;;;;;;;;;6149836;23;20028;-92
2023/01/09 19:37:57;;;;;;;3.40;3.10;;;;;;;;;;6102016;23;20370;-89
2023/01/09 19:40:25;;;;;;;4.95;2.65;;;;;;;;;;6125659;23;20021;-91
2023/01/09 19:42:57;;;;;;;7.05;4.18;;;;;;;;;;6101648;23;20375;-89
2023/01/09 19:45:25;;;;;;;2.88;1.90;;;;;;;;;;6099879;23;20017;-90
2023/01/09 19:48:06;;;;;;;3.15;2.80;;;;;;;;;;6102327;23;20026;-89
2023/01/09 19:50:36;;;;;;;3.85;2.55;;;;;;;;;;6123974;23;20025;-89
2023/01/09 19:53:07;;;;;;;5.45;3.63;;;;;;;;;;6110322;23;20338;-90
2023/01/09 19:55:41;;;;;;;3.97;2.13;;;;;;;;;;6125763;23;20021;-89
2023/01/09 19:58:08;;;;;;;4.22;3.72;;;;;;;;;;6154373;23;20056;-92
2023/01/09 20:00:36;;;;;;;3.30;2.65;;;;;;;;;;6124380;23;20033;-89
2023/01/09 20:03:05;;;;;;;3.70;2.92;;;;;;;;;;6125720;23;20026;-90
2023/01/09 20:05:38;;;;;;;6.72;3.67;;;;;;;;;;6148479;23;20036;-89
2023/01/09 20:08:07;;;;;;;3.65;3.10;;;;;;;;;;6076061;23;20022;-90
2023/01/09 20:10:43;;;;;;;4.57;4.03;;;;;;;;;;6122039;23;20045;-91
2023/01/09 20:13:11;;;;;;;4.20;3.03;;;;;;;;;;6120724;23;20018;-90
2023/01/09 20:15:42;;;;;;;5.10;3.22;;;;;;;;;;6124929;23;20074;-91
2023/01/09 20:18:13;;;;;;;3.65;2.75;;;;;;;;;;6101940;23;20540;-90
2023/01/09 20:20:49;;;;;;;3.67;2.47;;;;;;;;;;6126600;23;20040;-89
2023/01/09 20:23:20;;;;;;;3.60;2.67;;;;;;;;;;6129325;23;20029;-89
2023/01/09 20:25:51;;;;;;;4.03;2.67;;;;;;;;;;6114587;23;20069;-91
2023/01/09 20:28:25;;;;;;;2.35;2.00;;;;;;;;;;6159124;23;20028;-89
2023/01/09 20:30:59;;;;;;;3.25;2.30;;;;;;;;;;6123892;23;20029;-88
2023/01/09 20:33:32;;;;;;;2.83;2.03;;;;;;;;;;6127830;23;20025;-89
2023/01/09 20:36:03;;;;;;;2.55;2.30;;;;;;;;;;6115014;23;20018;-90
2023/01/09 20:38:31;;;;;;;3.70;2.38;;;;;;;;;;6103520;23;20021;-89
2023/01/09 20:41:09;;;;;;;9.23;2.78;;;;;;;;;;6152089;23;20187;-91
2023/01/09 20:43:41;;;;;;;2.92;2.58;;;;;;;;;;6137594;23;20024;-90
2023/01/09 20:46:09;;;;;;;4.32;2.80;;;;;;;;;;6118247;23;20025;-89
2023/01/09 20:48:38;;;;;;;2.90;1.70;;;;;;;;;;6108035;23;20373;-89
2023/01/09 20:51:07;;;;;;;3.65;2.15;;;;;;;;;;6133176;23;20018;-90
2023/01/09 20:53:54;;;;;;;6.78;2.63;;;;;;;;;;6131784;23;20025;-90
2023/01/09 20:56:25;;;;;;;3.25;2.05;;;;;;;;;;6108602;23;20013;-89
2023/01/09 20:58:55;;;;;;;3.70;1.98;;;;;;;;;;6108729;23;20018;-89
2023/01/09 21:01:27;;;;;;;2.88;2.05;;;;;;;;;;6134176;23;20024;-90
2023/01/09 21:04:01;;;;;;;4.05;2.30;;;;;;;;;;6134758;23;20031;-90
2023/01/09 21:06:31;;;;;;;3.15;2.40;;;;;;;;;;6116071;23;20013;-91
2023/01/09 21:08:58;;;;;;;2.47;1.90;;;;;;;;;;6143073;23;20021;-90
2023/01/09 21:11:32;;;;;;;3.72;2.40;;;;;;;;;;6141892;23;20018;-90
2023/01/09 21:14:02;;;;;;;6.20;4.68;;;;;;;;;;6144639;23;20017;-92
2023/01/09 21:16:30;;;;;;;4.05;2.85;;;;;;;;;;6117882;23;20018;-92
2023/01/09 21:19:04;;;;;;;3.78;2.88;;;;;;;;;;6111865;23;20022;-89
2023/01/09 21:21:32;;;;;;;2.72;2.40;;;;;;;;;;6135889;23;20023;-90
2023/01/09 21:24:00;;;;;;;3.70;3.30;;;;;;;;;;6134275;23;20053;-89
2023/01/09 21:26:30;;;;;;;3.25;2.67;;;;;;;;;;6109377;23;20017;-89
2023/01/09 21:28:59;;;;;;;2.45;2.10;;;;;;;;;;6132948;23;20022;-90
2023/01/09 21:31:32;;;;;;;3.25;2.28;;;;;;;;;;6130552;23;20508;-89
2023/01/09 21:34:08;;;;;;;3.17;2.42;;;;;;;;;;6116914;23;20495;-92
2023/01/09 21:36:38;;;;;;;5.15;1.90;;;;;;;;;;6131160;23;20381;-92
2023/01/09 21:39:06;;;;;;;6.97;1.90;;;;;;;;;;6131366;23;20024;-90
2023/01/09 21:52:52;;;;;;;4.15;1.92;;;;;;;;;;6065547;23;20018;-86
2023/01/09 21:55:20;;;;;;;2.88;1.70;;;;;;;;;;6098363;23;20430;-88
2023/01/09 21:57:47;;;;;;;3.35;1.75;;;;;;;;;;6039968;23;20026;-88
2023/01/09 22:00:15;;;;;;;2.15;1.83;;;;;;;;;;6067738;23;20022;-88
2023/01/09 22:02:45;;;;;;;8.35;2.35;;;;;;;;;;6018337;23;20034;-88
2023/01/09 22:05:18;;;;;;;2.95;1.85;;;;;;;;;;6065888;23;20510;-88
2023/01/09 22:07:47;;;;;;;1.77;1.63;;;;;;;;;;6041199;23;20027;-88
2023/01/09 22:10:17;;;;;;;4.00;2.42;;;;;;;;;;6073739;23;20015;-88
2023/01/09 22:15:30;;;;;;;3.35;3.05;;;;;;;;;;6067171;23;20449;-88
2023/01/09 22:17:58;;;;;;;4.18;2.40;;;;;;;;;;6041523;23;20016;-88
2023/01/09 22:20:29;;;;;;;3.63;2.22;;;;;;;;;;6088447;23;20518;-88
2023/01/09 22:22:56;;;;;;;4.53;2.95;;;;;;;;;;6064516;23;20467;-88
2023/01/09 22:25:26;;;;;;;7.85;2.88;;;;;;;;;;6075508;23;20041;-88
2023/01/09 22:27:55;;;;;;;5.25;3.03;;;;;;;;;;6041651;23;20033;-88
2023/01/09 22:30:23;;;;;;;4.75;3.20;;;;;;;;;;6073707;23;20426;-88
2023/01/09 22:32:52;;;;;;;7.13;3.47;;;;;;;;;;6063952;23;20018;-88
2023/01/09 22:35:22;;;;;;;8.73;2.95;;;;;;;;;;6089345;23;20015;-88
2023/01/09 22:37:51;;;;;;;3.83;2.33;;;;;;;;;;6066598;23;20015;-88
2023/01/09 22:40:19;;;;;;;3.83;2.88;;;;;;;;;;6041705;23;20025;-88
2023/01/09 22:42:46;;;;;;;5.78;3.53;;;;;;;;;;6064828;23;20015;-88
2023/01/09 22:45:16;;;;;;;7.38;4.45;;;;;;;;;;6088849;23;20025;-89
2023/01/09 22:47:43;;;;;;;5.57;2.70;;;;;;;;;;6089619;23;20015;-89
2023/01/09 22:50:11;;;;;;;3.50;2.92;;;;;;;;;;6066691;23;20019;-88
2023/01/09 22:52:38;;;;;;;9.93;3.88;;;;;;;;;;6076765;23;20030;-89
2023/01/09 22:55:10;;;;;;;6.22;3.22;;;;;;;;;;6066247;23;20018;-89
2023/01/09 22:57:39;;;;;;;10.07;2.83;;;;;;;;;;6041408;23;20019;-89
2023/01/09 23:00:11;;;;;;;6.40;3.78;;;;;;;;;;6063977;23;20019;-89
2023/01/09 23:02:40;;;;;;;4.20;2.22;;;;;;;;;;6097679;23;20026;-89
2023/01/09 23:05:08;;;;;;;3.42;2.70;;;;;;;;;;6075207;23;20026;-89
2023/01/09 23:07:36;;;;;;;2.85;2.20;;;;;;;;;;6041139;23;20027;-89
2023/01/09 23:10:06;;;;;;;3.88;2.88;;;;;;;;;;6066647;23;20015;-89
2023/01/09 23:12:37;;;;;;;4.57;2.60;;;;;;;;;;6067020;23;20320;-89
2023/01/09 23:15:05;;;;;;;5.72;2.38;;;;;;;;;;6065396;23;20030;-89